Mc Carley, Mississippi
Current Conditions -  °F | °C
As of 11:53 AM on Thursday 30 Oct 2014 (Local Time) from KGWO Reporting Station
Clear Clear  
Wind Chill: 20°   Ceiling: Unl
Heat Index: 20°   Visibility: 10mi
Dew Point:   Wind: 3mph
Humidity: 40%   Direction: NA
Pressure: 30.15"   Gusts: NA
Location:  33.5217°N, 89.8329°W
Report Text: KGWO 301653Z AUTO VRB03KT 10SM CLR 20/06 A3015 RMK AO2 SLP209 T02000061 TSNO
Loading
Personal Weather Stations






























Interactive Weather Map
Tropical Storm Tracking
New forecast layout! Learn more

10-Day Weather Forecast

Advertisements
Track Severe Weather on mobile